Decoded Metar for PAKK (KOYUK in AK, USA) (IATA:KKA) | Meteo·Mobile Aviation Weather
aviador You're here:

PAKK Decoded Metar

KOYUK in AK, USA
Report Time2019-03-21 14:56:00
UTC Time2019-03-21 15:57:11
Flight Rules vfr VFR
Wind350° at 14 Gusting to 25 kt
W.Decomp.*RWY 01: 11.3 kt HW 8.2 kt LCW
W.Rank350° ranks 4
Current wind is above 350° avg. (7.7)
Visibility9999 m
Phenomena:Light Snow
Clouds:Overcast 045 Hf
Expected CloudBase > 1,200 ft AGL from Temp-Dew spread
Ceiling4,500 ft
Temp-14°C (ISA -29)
Dew Point-17°C (78% RH)
AAT-22.5°C
QNH1000 hPa
Density Alt-2,992 ft
Elevation154 ft
Report Wrong Elevation
Raw Report
PAKK 211456Z AUTO 35014G25KT 9SM -SN OVC045 M14/M17 A2954 RMK AO2
PK WND 34029/1359 SLP016 P0000 60000 T11441172 58011
FZRANO=

Extra information for PAKK:More info

Metar Taf Metar & Taf Last 4 Metars F.Rules Stats Wind Profile Meteogram Temp Stats Airport Information Weather charts Add Link Nearby VenuesMetar ALERT Operation Metar Decoded Social comments

AIRNAV info for PAKK